Time;durP1;ratioP1;P1;durP2;ratioP2;P2;SDS_P1;SDS_P2;PMS_P1;PMS_P2;Temp;Humidity;BMP_temperature;BMP_pressure;BME280_temperature;BME280_humidity;BME280_pressure;Samples;Min_cycle;Max_cycle;Signal;HPM_P1;HPM_P2
2020/12/27 00:01:04;;;;;;;7.97;5.20;;;;;;;0.62;100.00;98011.03;5073519;28;20686;-69
2020/12/27 00:03:30;;;;;;;8.07;5.40;;;;;;;0.64;100.00;98008.84;5072017;28;20288;-69
2020/12/27 00:05:56;;;;;;;8.37;5.37;;;;;;;0.32;100.00;98011.13;5072968;28;20243;-69
2020/12/27 00:08:22;;;;;;;8.47;5.00;;;;;;;0.47;100.00;98000.22;5072792;28;20251;-69
2020/12/27 00:10:48;;;;;;;8.43;5.33;;;;;;;0.12;100.00;97999.47;5064819;28;20210;-69
2020/12/27 00:13:17;;;;;;;9.90;5.57;;;;;;;0.20;100.00;97997.00;5067456;28;20209;-69
2020/12/27 00:15:43;;;;;;;7.70;5.23;;;;;;;0.33;100.00;98001.88;5052926;28;20308;-69
2020/12/27 00:18:09;;;;;;;8.17;5.27;;;;;;;0.47;100.00;98002.13;5052995;28;20729;-69
2020/12/27 00:20:35;;;;;;;8.10;5.63;;;;;;;0.68;100.00;97998.25;5055182;28;20201;-69
2020/12/27 00:23:02;;;;;;;9.00;5.50;;;;;;;0.62;100.00;97988.50;5058179;28;20216;-68
2020/12/27 00:25:30;;;;;;;12.00;7.97;;;;;;;0.31;100.00;97989.69;5069358;28;20316;-69
2020/12/27 00:27:56;;;;;;;11.63;6.20;;;;;;;0.73;100.00;97980.03;5074230;28;20205;-69
2020/12/27 00:30:22;;;;;;;9.70;5.30;;;;;;;0.71;100.00;97981.41;5073644;28;20205;-70
2020/12/27 00:32:48;;;;;;;10.07;5.90;;;;;;;0.21;100.00;97989.69;5066727;28;20386;-69
2020/12/27 00:35:14;;;;;;;8.67;5.60;;;;;;;0.31;100.00;97986.97;5067990;28;20248;-69
2020/12/27 00:37:43;;;;;;;9.83;5.67;;;;;;;0.39;100.00;97983.69;5071093;28;20239;-69
2020/12/27 00:40:10;;;;;;;10.43;5.93;;;;;;;0.20;100.00;97979.94;5071257;28;20292;-69
2020/12/27 00:42:36;;;;;;;9.43;5.50;;;;;;;0.17;100.00;97981.28;5073664;28;20202;-69
2020/12/27 00:45:03;;;;;;;8.30;5.13;;;;;;;0.55;100.00;97969.78;5072240;28;20286;-69
2020/12/27 00:47:32;;;;;;;10.17;5.80;;;;;;;0.88;100.00;97960.97;5074041;28;20248;-69
2020/12/27 00:49:58;;;;;;;8.20;5.90;;;;;;;0.44;100.00;97964.69;5073348;28;20713;-69
2020/12/27 00:52:24;;;;;;;10.37;5.80;;;;;;;0.56;100.00;97963.28;5074086;28;20287;-69
2020/12/27 00:54:50;;;;;;;11.60;5.63;;;;;;;0.34;100.00;97948.44;5072838;28;20841;-69
2020/12/27 00:57:16;;;;;;;9.60;5.57;;;;;;;0.12;100.00;97946.06;5073323;28;20241;-69
2020/12/27 01:33:37;;;;;;;12.47;6.03;;;;;;;0.19;100.00;97858.94;5109522;27;20495;-69
2020/12/27 01:36:03;;;;;;;9.80;5.90;;;;;;;-0.41;100.00;97855.34;5109424;28;20315;-68
2020/12/27 01:38:29;;;;;;;9.13;5.77;;;;;;;-0.45;100.00;97848.00;5109755;28;20242;-67
2020/12/27 01:41:03;;;;;;;11.13;6.03;;;;;;;-0.55;100.00;97842.63;5109777;28;20204;-67
2020/12/27 01:43:29;;;;;;;7.97;5.80;;;;;;;-0.31;100.00;97836.31;5109484;28;20294;-68
2020/12/27 01:45:55;;;;;;;10.10;6.30;;;;;;;-0.45;100.00;97838.00;5109320;28;20228;-67
2020/12/27 01:48:22;;;;;;;10.70;5.90;;;;;;;-0.44;100.00;97831.47;5109418;28;20253;-68
2020/12/27 01:50:50;;;;;;;11.93;6.13;;;;;;;-0.52;100.00;97820.41;5110371;28;20204;-68
2020/12/27 01:53:16;;;;;;;7.83;5.90;;;;;;;-0.47;100.00;97817.66;5110513;28;20268;-68
2020/12/27 01:55:42;;;;;;;8.83;5.90;;;;;;;-0.60;100.00;97813.63;5110133;28;20238;-67
2020/12/27 01:58:15;;;;;;;10.27;5.97;;;;;;;-0.67;100.00;97802.28;5112587;28;20279;-68
2020/12/27 02:00:43;;;;;;;9.93;5.67;;;;;;;-0.62;100.00;97807.66;5110846;28;20290;-67
2020/12/27 02:03:10;;;;;;;8.60;5.77;;;;;;;-0.67;100.00;97812.28;5109598;28;20335;-69
2020/12/27 02:05:51;;;;;;;8.17;5.80;;;;;;;-0.71;100.00;97797.69;5110911;28;20276;-68
2020/12/27 02:08:19;;;;;;;11.03;6.37;;;;;;;-0.77;100.00;97796.06;5111469;28;20291;-68
2020/12/27 02:10:51;;;;;;;12.90;6.47;;;;;;;-0.80;100.00;97781.16;5100956;28;20205;-67
2020/12/27 02:13:17;;;;;;;10.13;5.23;;;;;;;-0.74;100.00;97780.06;5086947;28;20274;-67
2020/12/27 02:15:43;;;;;;;9.50;5.83;;;;;;;-0.66;100.00;97776.81;5088302;28;20315;-67
2020/12/27 02:18:09;;;;;;;8.00;5.53;;;;;;;-0.71;100.00;97774.09;5088849;28;20216;-67
2020/12/27 02:20:36;;;;;;;8.70;5.63;;;;;;;-0.36;100.00;97776.72;5088661;28;20232;-68
2020/12/27 02:23:04;;;;;;;8.17;5.60;;;;;;;-0.81;100.00;97768.72;5099240;28;20688;-68
2020/12/27 02:25:30;;;;;;;9.57;5.53;;;;;;;-0.69;100.00;97761.09;5108539;28;20230;-69
2020/12/27 02:27:56;;;;;;;8.70;5.77;;;;;;;-0.16;100.00;97744.13;5108568;28;20200;-68
2020/12/27 02:30:22;;;;;;;8.60;5.73;;;;;;;-0.42;100.00;97737.16;5109037;28;20261;-69
2020/12/27 02:32:50;;;;;;;11.03;5.90;;;;;;;-0.58;100.00;97740.19;5108292;28;20799;-67
2020/12/27 02:35:16;;;;;;;12.93;5.93;;;;;;;-0.59;100.00;97733.16;5107202;28;20772;-68
2020/12/27 02:37:42;;;;;;;8.17;5.50;;;;;;;-0.23;100.00;97723.81;5108901;28;20222;-68
2020/12/27 02:40:08;;;;;;;9.97;6.30;;;;;;;-0.64;100.00;97709.59;5118987;28;20204;-68
2020/12/27 02:42:34;;;;;;;11.33;6.03;;;;;;;-0.81;100.00;97709.13;5115588;28;20234;-68
2020/12/27 02:45:09;;;;;;;9.33;5.77;;;;;;;-0.90;100.00;97702.66;5094821;28;20204;-68
2020/12/27 02:47:39;;;;;;;8.93;5.57;;;;;;;-1.03;100.00;97708.63;5094302;28;20251;-67
2020/12/27 02:50:13;;;;;;;7.67;5.40;;;;;;;-0.83;100.00;97707.78;5094762;28;20208;-68
2020/12/27 02:52:39;;;;;;;9.83;5.67;;;;;;;-0.82;100.00;97701.28;5094738;28;20319;-67
2020/12/27 02:55:06;;;;;;;8.33;4.67;;;;;;;-0.80;100.00;97699.91;5094097;28;20615;-68
2020/12/27 02:57:32;;;;;;;8.73;6.00;;;;;;;-0.84;100.00;97693.41;5094950;28;20238;-69
2020/12/27 02:59:58;;;;;;;8.77;5.77;;;;;;;-0.76;100.00;97684.75;5094975;28;20234;-69
2020/12/27 03:02:24;;;;;;;8.57;5.93;;;;;;;-0.50;100.00;97678.16;5096582;28;20269;-68
2020/12/27 03:04:50;;;;;;;9.83;5.33;;;;;;;-0.57;100.00;97669.50;5096153;28;20291;-69
2020/12/27 03:07:16;;;;;;;9.10;5.10;;;;;;;-0.45;100.00;97671.88;5094590;28;20277;-68
2020/12/27 03:09:42;;;;;;;8.80;5.73;;;;;;;-0.80;100.00;97659.28;5092789;28;20204;-68
2020/12/27 03:12:08;;;;;;;11.10;5.80;;;;;;;-0.77;100.00;97653.34;5074612;28;20315;-69
2020/12/27 03:14:35;;;;;;;14.87;5.87;;;;;;;-0.92;100.00;97652.56;5073708;28;20209;-68
2020/12/27 03:17:01;;;;;;;11.33;5.97;;;;;;;-0.26;100.00;97646.59;5072533;28;20263;-67
2020/12/27 03:19:27;;;;;;;11.13;5.03;;;;;;;-0.37;100.00;97639.59;5074116;28;20240;-69
2020/12/27 03:21:53;;;;;;;10.27;5.53;;;;;;;-0.67;100.00;97637.03;5074077;28;20204;-68
2020/12/27 03:24:19;;;;;;;8.27;5.17;;;;;;;-0.58;100.00;97626.41;5055645;28;20315;-68
2020/12/27 03:26:45;;;;;;;9.87;5.47;;;;;;;-0.71;100.00;97632.47;5056163;28;20251;-67
2020/12/27 03:29:11;;;;;;;11.30;5.33;;;;;;;-1.02;100.00;97614.72;5073673;28;20809;-69
2020/12/27 03:31:37;;;;;;;8.67;5.67;;;;;;;-1.10;100.00;97613.38;5072696;28;20213;-68
2020/12/27 03:34:03;;;;;;;7.97;5.27;;;;;;;-1.09;100.00;97604.16;5073477;28;20237;-68
2020/12/27 03:36:43;;;;;;;8.70;5.10;;;;;;;-1.11;100.00;97606.31;5078523;28;20228;-67
2020/12/27 03:39:09;;;;;;;9.17;5.13;;;;;;;-1.11;100.00;97606.31;5071423;28;20243;-67
2020/12/27 03:41:35;;;;;;;10.90;5.40;;;;;;;-0.98;100.00;97594.91;5069869;28;20237;-68
2020/12/27 03:44:01;;;;;;;6.93;5.07;;;;;;;-0.94;100.00;97578.91;5071946;28;20243;-69
2020/12/27 03:46:27;;;;;;;7.13;5.30;;;;;;;-1.10;100.00;97567.34;5072147;28;20225;-67
2020/12/27 03:48:53;;;;;;;11.20;5.90;;;;;;;-1.01;100.00;97571.09;5069165;28;20292;-68
2020/12/27 03:51:19;;;;;;;8.63;5.70;;;;;;;-1.12;100.00;97562.22;5071568;28;20212;-69
2020/12/27 03:53:45;;;;;;;9.83;5.13;;;;;;;-1.26;100.00;97563.09;5073407;28;20256;-68
2020/12/27 03:56:11;;;;;;;7.47;5.10;;;;;;;-1.22;100.00;97545.19;5072438;28;20263;-68
2020/12/27 03:58:37;;;;;;;6.60;4.73;;;;;;;-1.45;100.00;97553.94;5073410;28;20201;-68
2020/12/27 04:01:03;;;;;;;7.73;5.60;;;;;;;-1.40;100.00;97549.31;5073194;28;20674;-68
2020/12/27 04:03:29;;;;;;;8.77;5.60;;;;;;;-1.41;100.00;97541.50;5071734;28;20201;-68
2020/12/27 04:05:55;;;;;;;8.83;5.40;;;;;;;-1.47;100.00;97545.28;5072817;28;20221;-68
2020/12/27 04:08:21;;;;;;;9.87;5.43;;;;;;;-1.34;100.00;97542.00;5084132;28;20225;-69
2020/12/27 04:10:47;;;;;;;8.23;5.50;;;;;;;-1.31;100.00;97536.03;5099404;28;20254;-69
2020/12/27 04:13:13;;;;;;;7.20;4.97;;;;;;;-1.15;100.00;97529.50;5092881;28;20319;-69
2020/12/27 04:15:40;;;;;;;11.70;5.80;;;;;;;-1.13;100.00;97532.69;5093022;28;20316;-69
2020/12/27 04:18:06;;;;;;;8.67;5.30;;;;;;;-1.46;100.00;97509.03;5093015;28;20211;-69
2020/12/27 04:20:34;;;;;;;10.23;5.67;;;;;;;-1.48;100.00;97524.75;5092883;28;20266;-69
2020/12/27 04:23:00;;;;;;;9.43;5.20;;;;;;;-1.35;100.00;97510.63;5092653;28;20216;-68
2020/12/27 04:25:26;;;;;;;7.77;5.30;;;;;;;-1.51;100.00;97503.63;5092678;28;20229;-69
2020/12/27 04:27:52;;;;;;;8.57;5.53;;;;;;;-1.49;100.00;97496.06;5092912;28;20296;-69
2020/12/27 04:30:18;;;;;;;8.60;5.40;;;;;;;-1.51;100.00;97487.41;5091557;28;20247;-69
2020/12/27 04:32:44;;;;;;;9.40;5.37;;;;;;;-1.52;100.00;97492.03;5092383;28;20224;-69
2020/12/27 04:35:11;;;;;;;8.33;5.07;;;;;;;-1.53;100.00;97493.09;5092094;28;20876;-69
2020/12/27 04:37:37;;;;;;;8.03;5.03;;;;;;;-1.59;100.00;97485.28;5091654;28;20207;-70
2020/12/27 04:40:04;;;;;;;6.43;4.77;;;;;;;-1.51;100.00;97484.69;5092825;28;20669;-68
2020/12/27 04:42:30;;;;;;;10.70;5.93;;;;;;;-1.44;100.00;97469.78;5092559;28;20219;-69
2020/12/27 04:44:58;;;;;;;9.77;5.40;;;;;;;-1.71;100.00;97468.53;5090861;28;20580;-69
2020/12/27 04:47:24;;;;;;;8.40;5.43;;;;;;;-1.68;100.00;97468.00;5092386;28;20291;-69
2020/12/27 04:49:51;;;;;;;7.60;5.03;;;;;;;-1.50;100.00;97460.09;5092155;28;20215;-69
2020/12/27 04:52:21;;;;;;;8.07;5.30;;;;;;;-1.50;100.00;97464.69;5094197;28;20218;-69
2020/12/27 04:54:50;;;;;;;8.40;4.57;;;;;;;-1.46;100.00;97468.47;5097203;28;20807;-69
2020/12/27 04:57:18;;;;;;;11.43;5.67;;;;;;;-1.47;100.00;97473.06;5093564;28;20204;-69
2020/12/27 04:59:48;;;;;;;7.63;5.47;;;;;;;-1.36;100.00;97469.22;5091329;28;20232;-70
2020/12/27 05:02:15;;;;;;;10.57;5.60;;;;;;;-1.80;100.00;97478.31;5092113;28;20211;-70
2020/12/27 05:04:44;;;;;;;7.97;5.53;;;;;;;-1.40;100.00;97470.03;5091121;28;20240;-70
2020/12/27 05:07:21;;;;;;;8.10;4.87;;;;;;;-1.55;100.00;97475.53;5090735;28;20229;-68
2020/12/27 05:09:51;;;;;;;6.47;4.90;;;;;;;-1.33;100.00;97470.56;5092197;28;20291;-68
2020/12/27 05:12:17;;;;;;;7.57;5.07;;;;;;;-1.27;100.00;97455.91;5092224;28;20260;-69
2020/12/27 05:14:47;;;;;;;7.27;4.67;;;;;;;-1.54;100.00;97466.31;5090382;28;20201;-69
2020/12/27 05:17:14;;;;;;;7.90;5.23;;;;;;;-1.51;100.00;97465.75;5092076;28;20313;-68
2020/12/27 05:19:42;;;;;;;9.70;5.23;;;;;;;-1.46;100.00;97458.44;5092218;28;20303;-68
2020/12/27 05:22:10;;;;;;;6.90;5.10;;;;;;;-1.51;100.00;97457.66;5092465;28;20287;-68
2020/12/27 05:24:38;;;;;;;7.93;5.20;;;;;;;-1.28;100.00;97460.50;5091626;28;20731;-69
2020/12/27 05:27:05;;;;;;;7.80;5.43;;;;;;;-1.75;100.00;97453.97;5091739;28;20654;-69
2020/12/27 05:29:34;;;;;;;7.30;4.97;;;;;;;-1.90;100.00;97451.31;5091960;28;20206;-69
2020/12/27 05:32:01;;;;;;;8.33;5.33;;;;;;;-1.78;100.00;97439.09;5091843;28;20275;-69
2020/12/27 05:34:29;;;;;;;9.40;5.47;;;;;;;-1.76;100.00;97436.13;5091593;28;20253;-69
2020/12/27 05:37:00;;;;;;;8.50;5.20;;;;;;;-1.80;100.00;97430.47;5096467;28;20224;-69
2020/12/27 05:39:30;;;;;;;9.90;4.90;;;;;;;-1.56;100.00;97417.09;5110226;28;20204;-68
2020/12/27 05:42:08;;;;;;;10.00;6.07;;;;;;;-1.79;100.00;97415.06;5093408;28;20286;-70
2020/12/27 05:44:37;;;;;;;7.63;4.93;;;;;;;-1.89;100.00;97406.97;5091649;28;20236;-69
2020/12/27 05:47:03;;;;;;;7.93;4.90;;;;;;;-2.07;100.00;97401.09;5090394;28;20247;-69
2020/12/27 05:49:29;;;;;;;7.87;4.93;;;;;;;-1.81;100.00;97392.88;5091313;28;20636;-69
2020/12/27 05:51:58;;;;;;;7.40;5.33;;;;;;;-2.00;100.00;97381.88;5091654;28;20640;-69
2020/12/27 05:54:33;;;;;;;10.20;5.43;;;;;;;-1.92;100.00;97373.19;5073235;28;20287;-69
2020/12/27 05:57:00;;;;;;;6.17;4.60;;;;;;;-1.95;100.00;97362.94;5090180;28;20674;-69
2020/12/27 05:59:31;;;;;;;7.33;4.90;;;;;;;-2.12;100.00;97360.56;5091762;28;20677;-69
2020/12/27 06:01:59;;;;;;;7.47;5.30;;;;;;;-2.14;100.00;97346.53;5091878;28;20295;-68
2020/12/27 06:05:05;;;;;;;7.03;5.53;;;;;;;-2.10;100.00;97339.47;5091474;28;20264;-68
2020/12/27 06:07:33;;;;;;;8.10;5.00;;;;;;;-2.24;100.00;97348.44;5091790;28;20291;-70
2020/12/27 06:10:07;;;;;;;8.40;5.30;;;;;;;-2.24;100.00;97333.03;5089858;28;20200;-69
2020/12/27 06:12:57;;;;;;;8.17;5.10;;;;;;;-2.26;100.00;97345.19;5069967;28;20256;-69
2020/12/27 06:15:28;;;;;;;9.03;5.63;;;;;;;-2.21;100.00;97337.88;5071147;28;20316;-70
2020/12/27 06:17:57;;;;;;;10.87;5.53;;;;;;;-2.16;100.00;97339.78;5071470;28;20205;-69
2020/12/27 06:20:23;;;;;;;8.50;5.13;;;;;;;-2.27;100.00;97328.19;5074882;28;20240;-69
2020/12/27 06:22:50;;;;;;;9.47;5.67;;;;;;;-2.28;100.00;97331.97;5074821;28;20205;-69
2020/12/27 06:25:20;;;;;;;9.30;6.07;;;;;;;-2.26;100.00;97335.22;5074621;28;20231;-70
2020/12/27 06:27:46;;;;;;;7.73;5.50;;;;;;;-2.06;100.00;97335.13;5075024;28;20642;-69
2020/12/27 06:30:20;;;;;;;7.87;6.10;;;;;;;-2.14;100.00;97327.63;5074952;28;20207;-69
2020/12/27 06:32:58;;;;;;;7.67;5.60;;;;;;;-1.71;100.00;97319.81;5074708;28;20259;-70
2020/12/27 06:35:29;;;;;;;8.33;5.70;;;;;;;-2.12;100.00;97314.63;5074427;28;20753;-68
2020/12/27 06:37:56;;;;;;;9.97;5.40;;;;;;;-2.28;100.00;97313.06;5074549;28;20236;-69
2020/12/27 06:40:22;;;;;;;10.43;5.73;;;;;;;-2.14;100.00;97313.28;5073351;28;20586;-69
2020/12/27 06:42:48;;;;;;;8.60;5.57;;;;;;;-2.42;100.00;97311.22;5074534;28;20297;-69
2020/12/27 06:45:29;;;;;;;9.27;5.73;;;;;;;-2.28;100.00;97296.84;5074412;28;20287;-67
2020/12/27 06:47:57;;;;;;;7.53;5.40;;;;;;;-2.36;100.00;97296.63;5073555;28;20201;-68
2020/12/27 06:50:25;;;;;;;7.30;5.47;;;;;;;-2.34;100.00;97295.28;5074953;28;20212;-68
2020/12/27 06:52:52;;;;;;;7.50;5.10;;;;;;;-2.23;100.00;97296.81;5081432;28;20352;-69
2020/12/27 06:55:38;;;;;;;8.90;5.40;;;;;;;-2.03;100.00;97292.44;5089870;28;20315;-68
2020/12/27 06:58:22;;;;;;;8.27;5.67;;;;;;;-2.32;100.00;97282.28;5091027;28;20295;-69
2020/12/27 07:01:07;;;;;;;6.10;5.43;;;;;;;-2.38;100.00;97280.69;5091813;28;20204;-68
2020/12/27 07:03:33;;;;;;;8.60;5.97;;;;;;;-1.83;100.00;97265.28;5094002;28;20294;-70
2020/12/27 07:06:15;;;;;;;8.17;5.40;;;;;;;-2.11;100.00;97272.19;5096102;28;20232;-69
2020/12/27 07:09:00;;;;;;;9.20;5.53;;;;;;;-1.90;100.00;97270.19;5103702;28;20208;-69
2020/12/27 07:11:30;;;;;;;7.00;5.10;;;;;;;-2.22;100.00;97271.44;5095272;28;20291;-69
2020/12/27 07:13:57;;;;;;;9.43;5.20;;;;;;;-2.29;100.00;97270.94;5076391;28;20223;-69
2020/12/27 07:16:42;;;;;;;8.30;5.10;;;;;;;-2.08;100.00;97264.34;5094404;28;20225;-69
2020/12/27 07:19:16;;;;;;;8.53;5.07;;;;;;;-2.17;100.00;97257.09;5094540;28;20200;-69
2020/12/27 07:21:50;;;;;;;7.67;5.00;;;;;;;-1.97;100.00;97250.78;5094099;28;20204;-69
2020/12/27 07:24:22;;;;;;;6.53;4.87;;;;;;;-1.58;100.00;97244.31;5092929;28;20207;-68
2020/12/27 07:26:49;;;;;;;8.20;4.43;;;;;;;-0.96;100.00;97235.38;5094140;28;20262;-69
2020/12/27 07:29:21;;;;;;;6.57;4.60;;;;;;;-0.78;100.00;97221.09;5093731;28;20212;-69
2020/12/27 07:31:50;;;;;;;7.80;4.97;;;;;;;-0.99;100.00;97216.19;5093712;28;20754;-69
2020/12/27 07:34:22;;;;;;;7.40;4.53;;;;;;;-0.87;100.00;97209.28;5093396;28;20244;-69
2020/12/27 07:36:56;;;;;;;7.20;4.80;;;;;;;-0.36;100.00;97204.91;5093620;28;20757;-69
2020/12/27 07:39:48;;;;;;;8.23;4.50;;;;;;;-0.82;100.00;97192.19;5093825;28;20736;-68
2020/12/27 07:42:34;;;;;;;5.17;3.97;;;;;;;-0.85;100.00;97185.44;5092593;28;20208;-68
2020/12/27 07:45:04;;;;;;;8.13;4.30;;;;;;;-0.78;100.00;97179.66;5093497;28;20231;-68
2020/12/27 07:47:36;;;;;;;5.23;4.50;;;;;;;-0.87;100.00;97173.28;5093539;28;20748;-68
2020/12/27 07:50:05;;;;;;;6.23;4.80;;;;;;;-0.66;100.00;97163.84;5093587;28;20236;-69
2020/12/27 07:52:59;;;;;;;6.87;4.80;;;;;;;-0.76;100.00;97170.16;5095489;28;20784;-69
2020/12/27 07:55:42;;;;;;;7.57;5.20;;;;;;;-0.40;100.00;97143.47;5096819;28;20220;-70
2020/12/27 07:58:08;;;;;;;7.23;4.63;;;;;;;-0.89;100.00;97143.00;5093030;28;20219;-69
2020/12/27 08:00:37;;;;;;;7.43;4.67;;;;;;;-0.42;100.00;97138.31;5094087;28;20200;-70
2020/12/27 08:03:04;;;;;;;6.90;4.90;;;;;;;-0.82;100.00;97141.53;5092656;28;20291;-70
2020/12/27 08:05:31;;;;;;;5.57;4.60;;;;;;;-0.28;100.00;97131.09;5093344;28;20319;-71
2020/12/27 08:08:08;;;;;;;5.20;4.37;;;;;;;-0.89;100.00;97149.19;5093295;28;20700;-71
2020/12/27 08:10:34;;;;;;;6.73;4.67;;;;;;;-0.65;100.00;97122.91;5086622;28;20240;-71
2020/12/27 08:13:03;;;;;;;5.63;4.20;;;;;;;0.14;100.00;97113.09;5072972;28;20229;-71
2020/12/27 08:15:31;;;;;;;6.77;4.60;;;;;;;-0.16;100.00;97109.75;5071795;28;20264;-71
2020/12/27 08:17:58;;;;;;;6.53;4.50;;;;;;;-0.20;100.00;97092.47;5072858;28;20624;-71
2020/12/27 08:20:25;;;;;;;7.80;4.40;;;;;;;-0.41;100.00;97085.75;5072748;28;20690;-70
2020/12/27 08:22:59;;;;;;;6.57;4.80;;;;;;;-0.47;100.00;97086.91;5076795;28;20232;-73
2020/12/27 08:25:25;;;;;;;5.77;4.30;;;;;;;-0.40;100.00;97091.97;5072315;28;20764;-69
2020/12/27 08:27:52;;;;;;;6.60;4.50;;;;;;;-0.30;100.00;97072.84;5072962;28;20209;-68
2020/12/27 08:30:18;;;;;;;6.40;4.50;;;;;;;-0.52;100.00;97068.03;5073349;28;20236;-68
2020/12/27 08:32:44;;;;;;;7.07;4.80;;;;;;;-0.21;100.00;97054.81;5073672;28;20221;-69
2020/12/27 08:35:23;;;;;;;5.83;4.43;;;;;;;0.50;100.00;97057.13;5076090;28;20239;-69
2020/12/27 08:37:54;;;;;;;5.57;4.20;;;;;;;0.46;100.00;97048.78;5082916;28;20236;-67
2020/12/27 08:40:23;;;;;;;5.67;4.37;;;;;;;-0.30;100.00;97054.69;5077528;28;20296;-68
2020/12/27 08:42:52;;;;;;;8.20;4.83;;;;;;;-0.06;100.00;97047.25;5085816;28;20220;-70
2020/12/27 08:45:20;;;;;;;6.13;4.20;;;;;;;0.81;100.00;97031.81;5080489;28;20248;-69
2020/12/27 08:47:58;;;;;;;6.27;4.30;;;;;;;0.92;100.00;97032.41;5074675;28;20288;-70
2020/12/27 08:50:29;;;;;;;5.37;3.93;;;;;;;0.80;100.00;97030.19;5072097;28;20284;-67
2020/12/27 08:52:58;;;;;;;4.63;3.80;;;;;;;0.93;100.00;97023.19;5071377;28;20820;-70
2020/12/27 08:55:27;;;;;;;5.20;4.00;;;;;;;1.90;100.00;97026.94;5071799;28;20221;-71
2020/12/27 08:57:57;;;;;;;4.90;3.87;;;;;;;1.41;100.00;97012.59;5072074;28;20205;-70
2020/12/27 09:00:31;;;;;;;5.57;3.73;;;;;;;0.54;100.00;97009.28;5074056;28;20205;-71
2020/12/27 09:03:00;;;;;;;5.40;3.63;;;;;;;0.93;100.00;97006.88;5090146;28;20265;-72
2020/12/27 09:05:31;;;;;;;4.87;3.93;;;;;;;0.32;100.00;97001.03;5092104;28;20323;-68
2020/12/27 09:07:57;;;;;;;7.10;4.10;;;;;;;1.01;100.00;96992.56;5091081;28;20219;-69
2020/12/27 09:10:28;;;;;;;5.47;3.83;;;;;;;1.67;100.00;96984.56;5086934;28;20296;-69
2020/12/27 09:12:59;;;;;;;4.77;3.73;;;;;;;1.52;100.00;96970.50;5071179;28;20312;-69
2020/12/27 09:15:29;;;;;;;6.30;3.70;;;;;;;1.19;100.00;96982.69;5070337;28;20224;-67
2020/12/27 09:17:59;;;;;;;4.97;3.60;;;;;;;2.34;100.00;96958.06;5071630;28;20300;-69
2020/12/27 09:20:26;;;;;;;4.40;3.60;;;;;;;2.10;100.00;96965.00;5071448;28;20215;-70
2020/12/27 09:22:52;;;;;;;5.70;3.57;;;;;;;2.46;100.00;96965.66;5070876;28;20201;-68
2020/12/27 09:25:20;;;;;;;3.50;3.03;;;;;;;0.81;100.00;96963.13;5071523;28;20233;-68
2020/12/27 09:27:48;;;;;;;6.40;3.97;;;;;;;0.99;100.00;96962.19;5071710;28;20205;-69
2020/12/27 09:30:23;;;;;;;4.17;2.97;;;;;;;1.41;100.00;96953.63;5071235;28;20205;-68
2020/12/27 09:32:50;;;;;;;6.83;3.53;;;;;;;1.54;100.00;96947.34;5070887;28;20231;-68
2020/12/27 09:35:18;;;;;;;5.47;3.47;;;;;;;0.88;100.00;96933.66;5071010;28;20643;-69
2020/12/27 09:37:44;;;;;;;4.60;3.20;;;;;;;1.15;100.00;96932.81;5071674;28;20312;-69
2020/12/27 09:40:10;;;;;;;3.90;3.27;;;;;;;0.89;100.00;96952.34;5070250;28;20652;-67
2020/12/27 09:42:36;;;;;;;5.33;3.50;;;;;;;1.11;100.00;96937.25;5070305;28;20209;-67
2020/12/27 09:45:23;;;;;;;5.37;3.30;;;;;;;1.29;100.00;96918.06;5070776;28;20328;-65
2020/12/27 09:48:09;;;;;;;6.03;3.77;;;;;;;2.00;100.00;96923.34;5071162;28;20296;-66
2020/12/27 09:50:36;;;;;;;6.03;3.50;;;;;;;1.59;100.00;96911.88;5071203;28;20301;-69
2020/12/27 09:53:04;;;;;;;6.03;4.00;;;;;;;1.28;100.00;96911.00;5070799;28;20224;-69
2020/12/27 09:55:31;;;;;;;5.73;3.53;;;;;;;1.24;100.00;96910.00;5073968;28;20764;-66
2020/12/27 09:57:57;;;;;;;3.93;3.27;;;;;;;1.48;100.00;96907.03;5075048;28;20201;-65
2020/12/27 10:00:23;;;;;;;4.13;3.27;;;;;;;1.88;100.00;96887.75;5084124;28;20204;-67
2020/12/27 10:02:50;;;;;;;6.17;3.87;;;;;;;1.16;100.00;96878.16;5093736;28;20229;-67
2020/12/27 10:05:16;;;;;;;5.70;3.30;;;;;;;1.68;100.00;96874.69;5097395;28;20765;-67
2020/12/27 10:07:43;;;;;;;4.07;3.07;;;;;;;1.49;100.00;96852.34;5082657;28;20300;-69
2020/12/27 10:10:12;;;;;;;4.97;3.00;;;;;;;1.31;100.00;96847.91;5071481;28;20232;-66
2020/12/27 10:12:40;;;;;;;4.70;3.70;;;;;;;1.67;100.00;96832.31;5069974;28;20312;-67
2020/12/27 10:15:09;;;;;;;4.20;3.40;;;;;;;1.45;100.00;96840.50;5070182;28;20213;-67
2020/12/27 10:17:35;;;;;;;3.83;3.37;;;;;;;1.97;100.00;96833.41;5071336;28;20292;-66
2020/12/27 10:20:02;;;;;;;4.17;3.23;;;;;;;1.82;100.00;96826.47;5069120;28;20263;-66
2020/12/27 10:22:28;;;;;;;6.33;3.80;;;;;;;1.64;100.00;96827.47;5074654;28;20664;-66
2020/12/27 10:24:54;;;;;;;6.50;4.53;;;;;;;1.82;100.00;96831.09;5086661;28;20232;-66
2020/12/27 10:27:20;;;;;;;6.37;4.83;;;;;;;1.50;100.00;96829.47;5104288;28;20231;-66
2020/12/27 10:29:47;;;;;;;5.83;4.30;;;;;;;1.23;100.00;96813.34;5102688;28;20242;-67
2020/12/27 10:32:13;;;;;;;5.87;4.23;;;;;;;2.03;100.00;96799.47;5103071;28;20220;-66
2020/12/27 10:34:39;;;;;;;6.53;4.00;;;;;;;1.66;100.00;96792.63;5102889;28;20648;-67
2020/12/27 10:37:05;;;;;;;5.53;4.00;;;;;;;1.60;100.00;96783.03;5103819;28;20752;-68
2020/12/27 10:39:32;;;;;;;6.53;4.73;;;;;;;1.68;100.00;96763.22;5103912;28;20257;-68
2020/12/27 10:42:00;;;;;;;6.93;4.37;;;;;;;1.62;100.00;96769.91;5104693;28;21020;-66
2020/12/27 10:44:26;;;;;;;6.77;4.20;;;;;;;1.34;100.00;96751.38;5103576;28;20196;-68
2020/12/27 10:46:53;;;;;;;5.87;4.37;;;;;;;1.85;100.00;96743.44;5102812;28;20333;-66
2020/12/27 10:49:21;;;;;;;5.90;4.37;;;;;;;2.09;100.00;96741.09;5099549;28;20335;-68
2020/12/27 10:51:47;;;;;;;5.50;4.23;;;;;;;1.48;100.00;96711.34;5092325;28;20208;-66
2020/12/27 10:54:13;;;;;;;6.63;3.87;;;;;;;1.42;100.00;96704.44;5105532;28;20263;-67
2020/12/27 10:56:42;;;;;;;6.10;4.20;;;;;;;1.50;100.00;96714.53;5093433;28;20312;-68
2020/12/27 10:59:08;;;;;;;8.67;4.37;;;;;;;1.14;100.00;96711.97;5083563;28;20758;-67
2020/12/27 11:01:34;;;;;;;5.50;3.90;;;;;;;1.49;100.00;96691.19;5083215;28;20296;-67
2020/12/27 11:04:00;;;;;;;4.90;3.87;;;;;;;1.40;100.00;96677.59;5083641;28;20232;-68
2020/12/27 11:06:31;;;;;;;4.73;3.43;;;;;;;1.43;100.00;96668.78;5082472;28;20320;-67
2020/12/27 11:08:58;;;;;;;4.37;3.60;;;;;;;1.13;100.00;96672.38;5084896;28;20193;-67
2020/12/27 11:11:32;;;;;;;4.67;3.50;;;;;;;1.20;100.00;96647.44;5074266;28;20223;-68
2020/12/27 11:13:58;;;;;;;5.90;3.77;;;;;;;1.41;100.00;96616.69;5073108;28;20252;-69
2020/12/27 11:16:24;;;;;;;4.97;3.60;;;;;;;1.48;100.00;96619.72;5073565;28;20252;-66
2020/12/27 11:18:51;;;;;;;5.23;3.93;;;;;;;2.19;100.00;96584.94;5073630;28;20236;-66
2020/12/27 11:21:17;;;;;;;6.43;3.93;;;;;;;1.71;100.00;96594.03;5073382;28;20648;-67
2020/12/27 11:23:42;;;;;;;5.87;3.40;;;;;;;1.25;100.00;96571.25;5071881;28;20201;-66
2020/12/27 11:26:10;;;;;;;4.43;3.43;;;;;;;1.29;100.00;96569.50;5073665;28;20255;-66
2020/12/27 11:28:36;;;;;;;5.40;3.60;;;;;;;0.94;100.00;96560.47;5073787;28;20205;-66
2020/12/27 11:31:02;;;;;;;6.23;3.83;;;;;;;1.50;100.00;96557.72;5085765;28;20232;-67
2020/12/27 11:33:28;;;;;;;4.13;3.50;;;;;;;1.32;100.00;96556.09;5100497;28;20246;-67
2020/12/27 11:35:54;;;;;;;4.87;3.50;;;;;;;1.54;100.00;96536.94;5106126;28;20685;-67
2020/12/27 11:38:20;;;;;;;5.80;3.43;;;;;;;1.29;100.00;96532.28;5092917;28;20212;-68
2020/12/27 11:40:46;;;;;;;5.37;3.37;;;;;;;1.07;100.00;96531.56;5082259;28;20223;-68
2020/12/27 11:43:12;;;;;;;8.03;3.90;;;;;;;1.74;100.00;96525.44;5086681;28;20193;-67
2020/12/27 11:45:38;;;;;;;3.60;3.07;;;;;;;1.56;100.00;96514.88;5086257;28;20716;-67
2020/12/27 11:48:04;;;;;;;5.57;3.87;;;;;;;1.69;100.00;96509.28;5087424;28;20290;-69
2020/12/27 11:50:30;;;;;;;5.07;4.03;;;;;;;1.24;100.00;96510.69;5087270;28;20257;-67
2020/12/27 11:52:56;;;;;;;4.87;3.73;;;;;;;1.11;100.00;96500.78;5092811;28;20315;-70
2020/12/27 11:55:38;;;;;;;5.30;3.77;;;;;;;1.88;100.00;96482.53;5092900;28;20224;-69
2020/12/27 11:58:04;;;;;;;5.43;3.70;;;;;;;1.33;100.00;96484.34;5088991;28;20391;-69
2020/12/27 12:00:32;;;;;;;5.27;4.10;;;;;;;1.50;100.00;96491.69;5071900;28;20225;-69
2020/12/27 12:02:58;;;;;;;5.87;4.50;;;;;;;1.44;100.00;96469.31;5072090;28;20323;-69
2020/12/27 12:05:24;;;;;;;5.80;4.13;;;;;;;1.93;100.00;96471.50;5073191;28;20264;-69
2020/12/27 12:07:52;;;;;;;5.07;4.00;;;;;;;1.52;100.00;96449.50;5073024;28;20213;-67